Time;durP1;ratioP1;P1;durP2;ratioP2;P2;SDS_P1;SDS_P2;PMS_P1;PMS_P2;Temp;Humidity;BMP_temperature;BMP_pressure;BME280_temperature;BME280_humidity;BME280_pressure;Samples;Min_cycle;Max_cycle;Signal;HPM_P1;HPM_P2
2022/04/15 00:00:48;;;;;;;;;;;;;;;;;;6051537;23;20665;-85
2022/04/15 00:03:14;;;;;;;;;;;;;;;;;;6054932;23;20013;-84
2022/04/15 00:05:41;;;;;;;;;;;;;;;;;;6053675;23;19957;-84
2022/04/15 00:08:09;;;;;;;;;;;;;;;;;;6052320;23;19929;-84
2022/04/15 00:10:36;;;;;;;;;;;;;;;;;;6055988;23;19922;-84
2022/04/15 00:13:25;;;;;;;;;;;;;;;;;;6049295;23;19939;-85
2022/04/15 00:15:56;;;;;;;;;;;;;;;;;;6110298;23;20334;-85
2022/04/15 00:18:22;;;;;;;;;;;;;;;;;;6088413;23;19924;-84
2022/04/15 00:20:49;;;;;;;;;;;;;;;;;;6084695;23;19967;-85
2022/04/15 00:23:18;;;;;;;;;;;;;;;;;;6087618;23;19921;-85
2022/04/15 00:25:48;;;;;;;;;;;;;;;;;;6082094;23;19925;-85
2022/04/15 00:28:15;;;;;;;;;;;;;;;;;;6141436;23;19931;-85
2022/04/15 00:30:42;;;;;;;;;;;;;;;;;;6171480;23;19924;-85
2022/04/15 00:33:09;;;;;;;;;;;;;;;;;;6143917;23;20092;-84
2022/04/15 00:35:36;;;;;;;;;;;;;;;;;;6171109;23;20261;-85
2022/04/15 00:38:04;;;;;;;;;;;;;;;;;;6169769;23;20404;-85
2022/04/15 00:40:31;;;;;;;;;;;;;;;;;;6172124;23;19920;-85
2022/04/15 00:42:58;;;;;;;;;;;;;;;;;;6144236;23;19920;-85
2022/04/15 00:45:25;;;;;;;;;;;;;;;;;;6147625;23;19916;-85
2022/04/15 00:47:51;;;;;;;;;;;;;;;;;;6143034;23;19990;-85
2022/04/15 00:50:18;;;;;;;;;;;;;;;;;;6146991;23;19920;-85
2022/04/15 00:52:46;;;;;;;;;;;;;;;;;;6146031;23;19922;-85
2022/04/15 00:55:13;;;;;;;;;;;;;;;;;;6146363;23;19994;-84
2022/04/15 00:57:39;;;;;;;;;;;;;;;;;;6156883;23;19948;-85
2022/04/15 01:00:06;;;;;;;;;;;;;;;;;;6151579;23;20546;-85
2022/04/15 01:02:34;;;;;;;;;;;;;;;;;;6177708;23;19947;-85
2022/04/15 01:05:01;;;;;;;;;;;;;;;;;;6175411;23;19919;-84
2022/04/15 01:07:28;;;;;;;;;;;;;;;;;;6179072;23;19928;-84
2022/04/15 01:09:55;;;;;;;;;;;;;;;;;;6177348;23;19994;-84
2022/04/15 01:12:23;;;;;;;;;;;;;;;;;;6178570;23;19943;-85
2022/04/15 01:14:50;;;;;;;;;;;;;;;;;;6174143;23;20242;-84
2022/04/15 01:17:17;;;;;;;;;;;;;;;;;;6176827;23;19916;-84
2022/04/15 01:19:47;;;;;;;;;;;;;;;;;;6177910;23;19920;-84
2022/04/15 01:22:15;;;;;;;;;;;;;;;;;;6203339;23;19928;-85
2022/04/15 01:24:42;;;;;;;;;;;;;;;;;;6178088;23;19923;-84
2022/04/15 01:27:15;;;;;;;;;;;;;;;;;;6204693;23;19935;-84
2022/04/15 01:29:45;;;;;;;;;;;;;;;;;;6176456;23;19916;-84
2022/04/15 01:32:12;;;;;;;;;;;;;;;;;;6204389;23;20392;-84
2022/04/15 01:34:40;;;;;;;;;;;;;;;;;;6204232;23;19920;-84
2022/04/15 01:37:07;;;;;;;;;;;;;;;;;;6200634;23;20015;-85
2022/04/15 01:39:34;;;;;;;;;;;;;;;;;;6177346;23;19916;-84
2022/04/15 01:42:02;;;;;;;;;;;;;;;;;;6175020;23;19999;-84
2022/04/15 01:44:29;;;;;;;;;;;;;;;;;;6177950;23;19999;-84
2022/04/15 01:46:56;;;;;;;;;;;;;;;;;;6174024;23;19920;-84
2022/04/15 01:49:23;;;;;;;;;;;;;;;;;;6178232;23;20015;-84
2022/04/15 01:51:50;;;;;;;;;;;;;;;;;;6176104;23;19927;-84
2022/04/15 01:54:36;;;;;;;;;;;;;;;;;;6184193;23;20339;-84
2022/04/15 01:57:02;;;;;;;;;;;;;;;;;;6151755;23;19923;-84
2022/04/15 01:59:28;;;;;;;;;;;;;;;;;;6179871;23;19999;-84
2022/04/15 02:01:55;;;;;;;;;;;;;;;;;;6151477;23;19939;-84
2022/04/15 02:04:22;;;;;;;;;;;;;;;;;;6207542;23;19920;-84
2022/04/15 02:06:49;;;;;;;;;;;;;;;;;;6151803;23;19995;-85
2022/04/15 02:09:16;;;;;;;;;;;;;;;;;;6154869;23;20252;-84
2022/04/15 02:11:42;;;;;;;;;;;;;;;;;;6155398;23;19916;-84
2022/04/15 02:14:10;;;;;;;;;;;;;;;;;;6177297;23;19974;-84
2022/04/15 02:16:37;;;;;;;;;;;;;;;;;;6154345;23;19924;-84
2022/04/15 02:19:04;;;;;;;;;;;;;;;;;;6151883;23;19923;-84
2022/04/15 02:21:31;;;;;;;;;;;;;;;;;;6178734;23;19959;-84
2022/04/15 02:23:58;;;;;;;;;;;;;;;;;;6176724;23;19927;-84
2022/04/15 02:26:26;;;;;;;;;;;;;;;;;;6179464;23;19978;-84
2022/04/15 02:28:53;;;;;;;;;;;;;;;;;;6177142;23;19920;-84
2022/04/15 02:31:20;;;;;;;;;;;;;;;;;;6153750;23;19919;-85
2022/04/15 02:33:47;;;;;;;;;;;;;;;;;;6176277;23;19970;-85
2022/04/15 02:36:16;;;;;;;;;;;;;;;;;;6178512;23;19951;-84
2022/04/15 02:38:46;;;;;;;;;;;;;;;;;;6178869;23;20002;-84
2022/04/15 02:41:13;;;;;;;;;;;;;;;;;;6154038;23;19916;-85
2022/04/15 02:43:39;;;;;;;;;;;;;;;;;;6179116;23;19920;-84
2022/04/15 02:46:06;;;;;;;;;;;;;;;;;;6177528;23;20198;-84
2022/04/15 02:48:34;;;;;;;;;;;;;;;;;;6156857;23;19986;-84
2022/04/15 02:51:01;;;;;;;;;;;;;;;;;;6151871;23;19924;-84
2022/04/15 02:53:28;;;;;;;;;;;;;;;;;;6178143;23;19916;-84
2022/04/15 02:55:58;;;;;;;;;;;;;;;;;;6202996;23;20000;-84
2022/04/15 02:58:47;;;;;;;;;;;;;;;;;;6205993;23;19919;-84
2022/04/15 03:01:14;;;;;;;;;;;;;;;;;;6154320;23;19927;-84
2022/04/15 03:03:42;;;;;;;;;;;;;;;;;;6205788;23;19986;-84
2022/04/15 03:06:09;;;;;;;;;;;;;;;;;;6204245;23;20037;-84
2022/04/15 03:08:36;;;;;;;;;;;;;;;;;;6206386;23;19946;-84
2022/04/15 03:11:03;;;;;;;;;;;;;;;;;;6204110;23;20248;-84
2022/04/15 03:13:30;;;;;;;;;;;;;;;;;;6204164;23;20294;-84
2022/04/15 03:15:57;;;;;;;;;;;;;;;;;;6203660;23;19915;-84
2022/04/15 03:18:25;;;;;;;;;;;;;;;;;;6179486;23;19916;-84
2022/04/15 03:21:08;;;;;;;;;;;;;;;;;;6205542;23;19926;-84
2022/04/15 03:23:36;;;;;;;;;;;;;;;;;;6178886;23;19923;-84
2022/04/15 03:26:22;;;;;;;;;;;;;;;;;;6117761;23;19956;-84
2022/04/15 03:28:50;;;;;;;;;;;;;;;;;;6090172;23;19920;-84
2022/04/15 03:31:15;;;;;;;;;;;;;;;;;;6116673;23;19995;-84
2022/04/15 03:33:43;;;;;;;;;;;;;;;;;;6092457;23;20092;-84
2022/04/15 03:36:22;;;;;;;;;;;;;;;;;;6095626;23;19959;-84
2022/04/15 03:39:09;;;;;;;;;;;;;;;;;;6086469;23;19967;-84
2022/04/15 03:41:37;;;;;;;;;;;;;;;;;;6064906;23;20235;-84
2022/04/15 03:44:04;;;;;;;;;;;;;;;;;;6085884;23;20083;-84
2022/04/15 03:46:31;;;;;;;;;;;;;;;;;;6088795;23;19929;-84
2022/04/15 03:48:58;;;;;;;;;;;;;;;;;;6087079;23;19981;-84
2022/04/15 03:51:25;;;;;;;;;;;;;;;;;;6088321;23;19917;-84
2022/04/15 03:53:52;;;;;;;;;;;;;;;;;;6062028;23;19923;-84
2022/04/15 03:56:18;;;;;;;;;;;;;;;;;;6063743;23;20031;-84
2022/04/15 03:58:45;;;;;;;;;;;;;;;;;;6088012;23;19962;-84
2022/04/15 04:01:12;;;;;;;;;;;;;;;;;;6111935;23;19921;-84
2022/04/15 04:03:39;;;;;;;;;;;;;;;;;;6088478;23;19921;-84
2022/04/15 04:06:05;;;;;;;;;;;;;;;;;;6085942;23;19931;-85
2022/04/15 04:08:33;;;;;;;;;;;;;;;;;;6113271;23;19920;-84
2022/04/15 04:11:00;;;;;;;;;;;;;;;;;;6084695;23;19920;-85
2022/04/15 04:13:27;;;;;;;;;;;;;;;;;;6112860;23;19916;-85
2022/04/15 04:15:54;;;;;;;;;;;;;;;;;;6084459;23;19921;-85
2022/04/15 04:18:22;;;;;;;;;;;;;;;;;;6088203;23;19925;-85
2022/04/15 04:20:49;;;;;;;;;;;;;;;;;;6086167;23;19917;-85
2022/04/15 04:23:16;;;;;;;;;;;;;;;;;;6089217;23;19917;-84
2022/04/15 04:25:43;;;;;;;;;;;;;;;;;;6089147;23;19992;-84
2022/04/15 04:28:20;;;;;;;;;;;;;;;;;;6114260;23;19928;-85
2022/04/15 04:30:47;;;;;;;;;;;;;;;;;;6176373;23;20249;-84
2022/04/15 04:33:14;;;;;;;;;;;;;;;;;;6178257;23;19919;-84
2022/04/15 04:35:41;;;;;;;;;;;;;;;;;;6177782;23;19924;-84
2022/04/15 04:38:08;;;;;;;;;;;;;;;;;;6151070;23;20375;-84
2022/04/15 04:40:36;;;;;;;;;;;;;;;;;;6177598;23;19969;-84
2022/04/15 04:43:03;;;;;;;;;;;;;;;;;;6150488;23;19923;-84
2022/04/15 04:45:30;;;;;;;;;;;;;;;;;;6177883;23;20314;-84
2022/04/15 04:47:57;;;;;;;;;;;;;;;;;;6150871;23;19924;-84
2022/04/15 04:50:24;;;;;;;;;;;;;;;;;;6154074;23;19920;-84
2022/04/15 04:52:52;;;;;;;;;;;;;;;;;;6175802;23;19923;-84
2022/04/15 04:55:19;;;;;;;;;;;;;;;;;;6152807;23;19919;-85
2022/04/15 04:58:00;;;;;;;;;;;;;;;;;;6140471;23;20058;-84
2022/04/15 05:00:27;;;;;;;;;;;;;;;;;;6141989;23;19920;-84
2022/04/15 05:02:54;;;;;;;;;;;;;;;;;;6114088;23;19985;-84
2022/04/15 05:05:21;;;;;;;;;;;;;;;;;;6142865;23;19925;-84
2022/04/15 05:07:48;;;;;;;;;;;;;;;;;;6114323;23;20021;-84
2022/04/15 05:10:15;;;;;;;;;;;;;;;;;;6142096;23;19927;-84
2022/04/15 05:12:45;;;;;;;;;;;;;;;;;;6117639;23;19917;-84
2022/04/15 05:15:33;;;;;;;;;;;;;;;;;;6141620;23;19996;-84
2022/04/15 05:18:00;;;;;;;;;;;;;;;;;;6139382;23;19963;-84
2022/04/15 05:20:26;;;;;;;;;;;;;;;;;;6117088;23;20016;-84
2022/04/15 05:22:53;;;;;;;;;;;;;;;;;;6139271;23;19916;-84
2022/04/15 05:25:21;;;;;;;;;;;;;;;;;;6120607;23;19995;-84
2022/04/15 05:27:48;;;;;;;;;;;;;;;;;;6142717;23;20647;-84
2022/04/15 05:30:15;;;;;;;;;;;;;;;;;;6156172;23;19924;-84
2022/04/15 05:32:42;;;;;;;;;;;;;;;;;;6180508;23;19986;-84
2022/04/15 05:35:09;;;;;;;;;;;;;;;;;;6177960;23;19916;-84
2022/04/15 05:37:37;;;;;;;;;;;;;;;;;;6206139;23;19920;-84
2022/04/15 05:40:05;;;;;;;;;;;;;;;;;;6177489;23;20252;-84
2022/04/15 05:42:32;;;;;;;;;;;;;;;;;;6178889;23;19932;-84
2022/04/15 05:44:59;;;;;;;;;;;;;;;;;;6152069;23;19927;-84
2022/04/15 05:47:27;;;;;;;;;;;;;;;;;;6205133;23;19966;-84
2022/04/15 05:49:55;;;;;;;;;;;;;;;;;;6177484;23;19948;-84
2022/04/15 05:52:22;;;;;;;;;;;;;;;;;;6180719;23;20673;-84
2022/04/15 05:54:49;;;;;;;;;;;;;;;;;;6177471;23;19923;-84
2022/04/15 05:57:18;;;;;;;;;;;;;;;;;;6155574;23;19920;-84
2022/04/15 05:59:44;;;;;;;;;;;;;;;;;;6180031;23;20348;-84
2022/04/15 06:02:16;;;;;;;;;;;;;;;;;;6178971;23;19938;-84
2022/04/15 06:04:49;;;;;;;;;;;;;;;;;;6176940;23;19951;-85
2022/04/15 06:07:16;;;;;;;;;;;;;;;;;;6154993;23;19924;-85
2022/04/15 06:09:43;;;;;;;;;;;;;;;;;;6204335;23;19920;-85
2022/04/15 06:12:10;;;;;;;;;;;;;;;;;;6177578;23;19919;-85
2022/04/15 06:14:38;;;;;;;;;;;;;;;;;;6177391;23;19927;-85
2022/04/15 06:17:06;;;;;;;;;;;;;;;;;;6174286;23;20480;-85
2022/04/15 06:19:33;;;;;;;;;;;;;;;;;;6152519;23;20245;-85
2022/04/15 06:21:59;;;;;;;;;;;;;;;;;;6173583;23;19995;-85
2022/04/15 06:24:26;;;;;;;;;;;;;;;;;;6177790;23;19947;-85
2022/04/15 06:26:53;;;;;;;;;;;;;;;;;;6173783;23;19966;-85
2022/04/15 06:29:21;;;;;;;;;;;;;;;;;;6176996;23;19916;-85
2022/04/15 06:31:47;;;;;;;;;;;;;;;;;;6201438;23;19973;-85
2022/04/15 06:34:15;;;;;;;;;;;;;;;;;;6176070;23;19988;-85
2022/04/15 06:36:42;;;;;;;;;;;;;;;;;;6150571;23;20340;-85
2022/04/15 06:39:09;;;;;;;;;;;;;;;;;;6173876;23;19920;-85
2022/04/15 06:41:36;;;;;;;;;;;;;;;;;;6176875;23;19927;-85
2022/04/15 06:44:04;;;;;;;;;;;;;;;;;;6174860;23;19916;-85
2022/04/15 06:46:31;;;;;;;;;;;;;;;;;;6177744;23;19923;-85
2022/04/15 06:48:58;;;;;;;;;;;;;;;;;;6173748;23;19920;-85
2022/04/15 06:51:25;;;;;;;;;;;;;;;;;;6178282;23;19981;-85
2022/04/15 06:53:51;;;;;;;;;;;;;;;;;;6176756;23;19915;-85
2022/04/15 06:56:19;;;;;;;;;;;;;;;;;;6178511;23;19959;-85
2022/04/15 06:58:46;;;;;;;;;;;;;;;;;;6177834;23;19966;-85
2022/04/15 07:01:12;;;;;;;;;;;;;;;;;;6151446;23;19931;-85
2022/04/15 07:03:40;;;;;;;;;;;;;;;;;;6177403;23;19920;-85
2022/04/15 07:06:07;;;;;;;;;;;;;;;;;;6175242;23;19970;-85
2022/04/15 07:08:34;;;;;;;;;;;;;;;;;;6203375;23;19920;-84
2022/04/15 07:11:02;;;;;;;;;;;;;;;;;;6151865;23;20025;-85
2022/04/15 07:13:33;;;;;;;;;;;;;;;;;;6203808;23;19920;-85
2022/04/15 07:16:00;;;;;;;;;;;;;;;;;;6176742;23;19920;-84
2022/04/15 07:18:27;;;;;;;;;;;;;;;;;;6171582;23;19916;-84
2022/04/15 07:20:53;;;;;;;;;;;;;;;;;;6148902;23;19919;-84
2022/04/15 07:23:20;;;;;;;;;;;;;;;;;;6175619;23;20289;-84
2022/04/15 07:25:48;;;;;;;;;;;;;;;;;;6176031;23;19916;-84
2022/04/15 07:28:15;;;;;;;;;;;;;;;;;;6176298;23;19920;-84
2022/04/15 07:30:41;;;;;;;;;;;;;;;;;;6176916;23;20015;-85
2022/04/15 07:33:08;;;;;;;;;;;;;;;;;;6199222;23;19947;-85
2022/04/15 07:35:35;;;;;;;;;;;;;;;;;;6150669;23;19919;-85
2022/04/15 07:38:02;;;;;;;;;;;;;;;;;;6171936;23;19935;-85
2022/04/15 07:40:29;;;;;;;;;;;;;;;;;;6176307;23;19920;-85
2022/04/15 07:43:05;;;;;;;;;;;;;;;;;;6177773;23;20293;-85
2022/04/15 07:45:32;;;;;;;;;;;;;;;;;;6155994;23;20361;-85
2022/04/15 07:47:58;;;;;;;;;;;;;;;;;;6152317;23;19966;-85
2022/04/15 07:50:26;;;;;;;;;;;;;;;;;;6181339;23;19916;-85
2022/04/15 07:52:53;;;;;;;;;;;;;;;;;;6178251;23;19926;-85
2022/04/15 07:55:20;;;;;;;;;;;;;;;;;;6180860;23;19990;-84
2022/04/15 07:57:48;;;;;;;;;;;;;;;;;;6179455;23;20399;-84
2022/04/15 08:00:15;;;;;;;;;;;;;;;;;;6180127;23;19924;-85
2022/04/15 08:02:42;;;;;;;;;;;;;;;;;;6155793;23;19920;-85
2022/04/15 08:05:09;;;;;;;;;;;;;;;;;;6153358;23;20325;-85
2022/04/15 08:07:52;;;;;;;;;;;;;;;;;;6176690;23;19935;-85
2022/04/15 08:10:19;;;;;;;;;;;;;;;;;;6174633;23;19919;-85
2022/04/15 08:12:48;;;;;;;;;;;;;;;;;;6175022;23;19927;-85
2022/04/15 08:15:16;;;;;;;;;;;;;;;;;;6180280;23;20352;-85
2022/04/15 08:17:43;;;;;;;;;;;;;;;;;;6171679;23;19920;-85
2022/04/15 08:20:14;;;;;;;;;;;;;;;;;;6150006;23;19920;-85
2022/04/15 08:22:57;;;;;;;;;;;;;;;;;;6111161;23;20286;-84
2022/04/15 08:25:24;;;;;;;;;;;;;;;;;;6110765;23;20000;-85
2022/04/15 08:27:51;;;;;;;;;;;;;;;;;;6085365;23;20110;-84
2022/04/15 08:30:18;;;;;;;;;;;;;;;;;;6113971;23;20088;-84
2022/04/15 08:32:44;;;;;;;;;;;;;;;;;;6111265;23;19917;-84
2022/04/15 08:35:30;;;;;;;;;;;;;;;;;;6089012;23;19919;-85
2022/04/15 08:37:58;;;;;;;;;;;;;;;;;;6107548;23;20015;-84
2022/04/15 08:40:31;;;;;;;;;;;;;;;;;;6109636;23;20353;-85
2022/04/15 08:43:17;;;;;;;;;;;;;;;;;;6091782;23;19924;-85
2022/04/15 08:45:47;;;;;;;;;;;;;;;;;;6110774;23;19933;-85
2022/04/15 08:48:15;;;;;;;;;;;;;;;;;;6113716;23;20000;-85
2022/04/15 08:50:42;;;;;;;;;;;;;;;;;;6111655;23;19980;-84
2022/04/15 08:53:10;;;;;;;;;;;;;;;;;;6118241;23;20330;-84
2022/04/15 08:55:37;;;;;;;;;;;;;;;;;;6122290;23;19917;-85
2022/04/15 08:58:04;;;;;;;;;;;;;;;;;;6120085;23;19936;-84
2022/04/15 09:00:32;;;;;;;;;;;;;;;;;;6146460;23;19940;-84
2022/04/15 09:02:58;;;;;;;;;;;;;;;;;;6169400;23;19921;-84
2022/04/15 09:05:25;;;;;;;;;;;;;;;;;;6121614;23;19927;-85
2022/04/15 09:07:52;;;;;;;;;;;;;;;;;;6143320;23;20686;-84
2022/04/15 09:10:20;;;;;;;;;;;;;;;;;;6172299;23;19920;-85
2022/04/15 09:12:47;;;;;;;;;;;;;;;;;;6139057;23;20304;-85
2022/04/15 09:15:14;;;;;;;;;;;;;;;;;;6173745;23;20345;-85
2022/04/15 09:17:42;;;;;;;;;;;;;;;;;;6153971;23;19924;-85
2022/04/15 09:20:11;;;;;;;;;;;;;;;;;;6204136;23;19920;-85
2022/04/15 09:22:39;;;;;;;;;;;;;;;;;;6175925;23;19919;-85
2022/04/15 09:25:09;;;;;;;;;;;;;;;;;;6200550;23;19930;-85
2022/04/15 09:27:36;;;;;;;;;;;;;;;;;;6175029;23;19974;-85
2022/04/15 09:30:24;;;;;;;;;;;;;;;;;;6109320;23;19920;-85
2022/04/15 09:32:51;;;;;;;;;;;;;;;;;;6083187;23;19975;-85
2022/04/15 09:35:18;;;;;;;;;;;;;;;;;;6134459;23;19921;-85
2022/04/15 09:37:46;;;;;;;;;;;;;;;;;;6134085;23;19921;-85
2022/04/15 09:40:16;;;;;;;;;;;;;;;;;;6135080;23;20274;-85
2022/04/15 09:42:43;;;;;;;;;;;;;;;;;;6110565;23;19917;-85
2022/04/15 09:45:22;;;;;;;;;;;;;;;;;;6113213;23;19936;-85
2022/04/15 09:47:50;;;;;;;;;;;;;;;;;;6081681;23;20048;-85
2022/04/15 09:50:19;;;;;;;;;;;;;;;;;;6104872;23;19920;-85
2022/04/15 09:52:46;;;;;;;;;;;;;;;;;;6131563;23;20247;-85
2022/04/15 09:55:13;;;;;;;;;;;;;;;;;;6133135;23;19953;-85
2022/04/15 09:57:41;;;;;;;;;;;;;;;;;;6133335;23;19921;-85
2022/04/15 10:00:12;;;;;;;;;;;;;;;;;;6107673;23;19921;-85
2022/04/15 10:02:55;;;;;;;;;;;;;;;;;;6104706;23;20439;-85
2022/04/15 10:05:26;;;;;;;;;;;;;;;;;;6080994;23;20384;-86
2022/04/15 10:07:52;;;;;;;;;;;;;;;;;;6078179;23;19999;-86
2022/04/15 10:10:20;;;;;;;;;;;;;;;;;;6080925;23;19981;-85
2022/04/15 10:12:47;;;;;;;;;;;;;;;;;;6130362;23;20602;-86
2022/04/15 10:15:13;;;;;;;;;;;;;;;;;;6167393;23;20730;-85
2022/04/15 10:17:42;;;;;;;;;;;;;;;;;;6177608;23;19926;-85
2022/04/15 10:20:09;;;;;;;;;;;;;;;;;;6174341;23;20339;-85
2022/04/15 10:22:35;;;;;;;;;;;;;;;;;;6192893;23;19920;-85
2022/04/15 10:25:12;;;;;;;;;;;;;;;;;;6206105;23;19931;-85
2022/04/15 10:27:38;;;;;;;;;;;;;;;;;;6177889;23;19923;-85
2022/04/15 10:30:06;;;;;;;;;;;;;;;;;;6172145;23;19927;-85
2022/04/15 10:32:33;;;;;;;;;;;;;;;;;;6177504;23;19920;-84
2022/04/15 10:34:59;;;;;;;;;;;;;;;;;;6152836;23;19927;-84
2022/04/15 10:37:26;;;;;;;;;;;;;;;;;;6149362;23;19920;-85
2022/04/15 10:39:53;;;;;;;;;;;;;;;;;;6152559;23;19920;-86
2022/04/15 10:42:20;;;;;;;;;;;;;;;;;;6141380;23;19916;-86
2022/04/15 10:44:47;;;;;;;;;;;;;;;;;;6154670;23;20276;-85
2022/04/15 10:47:15;;;;;;;;;;;;;;;;;;6180181;23;19920;-86
2022/04/15 10:49:42;;;;;;;;;;;;;;;;;;6155298;23;20247;-86
2022/04/15 10:52:09;;;;;;;;;;;;;;;;;;6154162;23;19923;-86
2022/04/15 10:54:35;;;;;;;;;;;;;;;;;;6180342;23;19916;-86
2022/04/15 10:57:02;;;;;;;;;;;;;;;;;;6177729;23;19924;-86
2022/04/15 11:02:17;;;;;;;;;;;;;;;;;;6181679;23;19926;-86
2022/04/15 11:04:47;;;;;;;;;;;;;;;;;;6154494;23;19916;-86
2022/04/15 11:07:12;;;;;;;;;;;;;;;;;;6180674;23;19924;-86
2022/04/15 11:09:39;;;;;;;;;;;;;;;;;;6180990;23;19923;-86
2022/04/15 11:12:12;;;;;;;;;;;;;;;;;;6180035;23;19927;-86
2022/04/15 11:14:39;;;;;;;;;;;;;;;;;;6154133;23;19999;-86
2022/04/15 11:17:20;;;;;;;;;;;;;;;;;;6174048;23;19920;-86
2022/04/15 11:19:47;;;;;;;;;;;;;;;;;;6145975;23;19972;-86
2022/04/15 11:22:14;;;;;;;;;;;;;;;;;;6148554;23;19962;-86
2022/04/15 11:24:41;;;;;;;;;;;;;;;;;;6173539;23;19926;-85
2022/04/15 11:27:08;;;;;;;;;;;;;;;;;;6144481;23;20420;-85
2022/04/15 11:29:35;;;;;;;;;;;;;;;;;;6146395;23;19995;-85
2022/04/15 11:32:02;;;;;;;;;;;;;;;;;;6145810;23;20351;-85
2022/04/15 11:34:29;;;;;;;;;;;;;;;;;;6147186;23;19944;-85
2022/04/15 11:37:15;;;;;;;;;;;;;;;;;;6153230;23;19950;-86
2022/04/15 11:39:42;;;;;;;;;;;;;;;;;;6147769;23;19946;-86
2022/04/15 11:42:09;;;;;;;;;;;;;;;;;;6170893;23;20333;-86
2022/04/15 11:44:37;;;;;;;;;;;;;;;;;;6148791;23;19920;-86
2022/04/15 11:49:51;;;;;;;;;;;;;;;;;;6176411;23;19916;-86
2022/04/15 11:52:39;;;;;;;;;;;;;;;;;;6178433;23;19930;-86
2022/04/15 11:55:15;;;;;;;;;;;;;;;;;;6204825;23;19923;-86
2022/04/15 11:57:41;;;;;;;;;;;;;;;;;;6178514;23;19919;-86
2022/04/15 12:00:09;;;;;;;;;;;;;;;;;;6176477;23;19920;-85
2022/04/15 12:02:36;;;;;;;;;;;;;;;;;;6153246;23;19916;-86
2022/04/15 12:05:02;;;;;;;;;;;;;;;;;;6152607;23;19924;-86
2022/04/15 12:07:31;;;;;;;;;;;;;;;;;;6205108;23;20245;-85
2022/04/15 12:09:57;;;;;;;;;;;;;;;;;;6174929;23;19920;-86
2022/04/15 12:12:25;;;;;;;;;;;;;;;;;;6154309;23;19927;-86
2022/04/15 12:14:55;;;;;;;;;;;;;;;;;;6176179;23;20281;-86
2022/04/15 12:17:22;;;;;;;;;;;;;;;;;;6179368;23;20440;-86
2022/04/15 12:19:49;;;;;;;;;;;;;;;;;;6151793;23;19927;-86
2022/04/15 12:22:17;;;;;;;;;;;;;;;;;;6179087;23;20379;-85
2022/04/15 12:24:44;;;;;;;;;;;;;;;;;;6179068;23;20333;-85
2022/04/15 12:27:25;;;;;;;;;;;;;;;;;;6120920;23;19924;-86
2022/04/15 12:29:55;;;;;;;;;;;;;;;;;;6115742;23;20059;-86
2022/04/15 12:32:22;;;;;;;;;;;;;;;;;;6142440;23;19952;-85
2022/04/15 12:34:48;;;;;;;;;;;;;;;;;;6140562;23;19917;-86
2022/04/15 12:37:16;;;;;;;;;;;;;;;;;;6142979;23;20027;-86
2022/04/15 12:39:43;;;;;;;;;;;;;;;;;;6143161;23;20249;-86
2022/04/15 12:42:10;;;;;;;;;;;;;;;;;;6141182;23;20249;-85
2022/04/15 12:44:37;;;;;;;;;;;;;;;;;;6119141;23;19927;-85
2022/04/15 12:47:05;;;;;;;;;;;;;;;;;;6139979;23;19935;-85
2022/04/15 12:49:33;;;;;;;;;;;;;;;;;;6143045;23;19932;-85
2022/04/15 12:52:04;;;;;;;;;;;;;;;;;;6136806;23;19916;-85
2022/04/15 12:54:31;;;;;;;;;;;;;;;;;;6142012;23;20040;-86
2022/04/15 12:56:58;;;;;;;;;;;;;;;;;;6140485;23;19932;-86
2022/04/15 12:59:25;;;;;;;;;;;;;;;;;;6152116;23;19947;-86
2022/04/15 13:01:53;;;;;;;;;;;;;;;;;;6175289;23;19920;-86
2022/04/15 13:04:20;;;;;;;;;;;;;;;;;;6179118;23;20345;-86
2022/04/15 13:06:47;;;;;;;;;;;;;;;;;;6151858;23;19967;-87
2022/04/15 13:09:20;;;;;;;;;;;;;;;;;;6155234;23;19924;-86
2022/04/15 13:11:47;;;;;;;;;;;;;;;;;;6177562;23;19966;-86
2022/04/15 13:14:15;;;;;;;;;;;;;;;;;;6205112;23;19927;-86
2022/04/15 13:16:42;;;;;;;;;;;;;;;;;;6152744;23;19946;-86
2022/04/15 13:19:09;;;;;;;;;;;;;;;;;;6176496;23;19916;-86
2022/04/15 13:21:36;;;;;;;;;;;;;;;;;;6154493;23;19916;-86
2022/04/15 13:24:04;;;;;;;;;;;;;;;;;;6177394;23;19916;-86
2022/04/15 13:26:30;;;;;;;;;;;;;;;;;;6179387;23;20194;-85
2022/04/15 13:28:57;;;;;;;;;;;;;;;;;;6177156;23;19947;-86
2022/04/15 13:31:24;;;;;;;;;;;;;;;;;;6154015;23;20057;-86
2022/04/15 13:33:51;;;;;;;;;;;;;;;;;;6177016;23;20586;-86
2022/04/15 13:36:18;;;;;;;;;;;;;;;;;;6179243;23;19935;-86
2022/04/15 13:38:45;;;;;;;;;;;;;;;;;;6152902;23;19915;-86
2022/04/15 13:41:14;;;;;;;;;;;;;;;;;;6153897;23;19920;-86
2022/04/15 13:43:41;;;;;;;;;;;;;;;;;;6178317;23;20427;-86
2022/04/15 13:46:09;;;;;;;;;;;;;;;;;;6177503;23;19969;-86
2022/04/15 13:48:36;;;;;;;;;;;;;;;;;;6206341;23;19916;-86
2022/04/15 13:51:02;;;;;;;;;;;;;;;;;;6153714;23;19924;-86
2022/04/15 13:56:44;;;;;;;;;;;;;;;;;;6179201;23;19924;-86
2022/04/15 13:59:32;;;;;;;;;;;;;;;;;;6209327;23;19974;-86
2022/04/15 14:02:00;;;;;;;;;;;;;;;;;;6153713;23;19920;-86
2022/04/15 14:04:27;;;;;;;;;;;;;;;;;;6183095;23;19922;-85
2022/04/15 14:06:53;;;;;;;;;;;;;;;;;;6178828;23;19924;-86
2022/04/15 14:09:20;;;;;;;;;;;;;;;;;;6157560;23;19920;-86
2022/04/15 14:11:48;;;;;;;;;;;;;;;;;;6154947;23;19916;-86
2022/04/15 14:14:16;;;;;;;;;;;;;;;;;;6209135;23;20257;-85
2022/04/15 14:17:12;;;;;;;;;;;;;;;;;;6145312;23;19928;-86
2022/04/15 14:19:39;;;;;;;;;;;;;;;;;;6121385;23;19920;-86
2022/04/15 14:22:06;;;;;;;;;;;;;;;;;;6119045;23;19931;-85
2022/04/15 14:24:37;;;;;;;;;;;;;;;;;;6145929;23;19979;-85
2022/04/15 14:27:13;;;;;;;;;;;;;;;;;;6120676;23;20360;-85
2022/04/15 14:29:40;;;;;;;;;;;;;;;;;;6118991;23;19927;-86
2022/04/15 14:32:07;;;;;;;;;;;;;;;;;;6139965;23;20415;-86
2022/04/15 14:34:35;;;;;;;;;;;;;;;;;;6118772;23;20006;-86
2022/04/15 14:37:02;;;;;;;;;;;;;;;;;;6139888;23;19937;-86
2022/04/15 14:39:28;;;;;;;;;;;;;;;;;;6117591;23;19932;-86
2022/04/15 14:42:00;;;;;;;;;;;;;;;;;;6117057;23;19995;-86
2022/04/15 14:44:26;;;;;;;;;;;;;;;;;;6118152;23;19921;-86
2022/04/15 14:46:58;;;;;;;;;;;;;;;;;;6110696;23;19986;-85
2022/04/15 14:49:25;;;;;;;;;;;;;;;;;;6118179;23;19917;-86
2022/04/15 14:51:54;;;;;;;;;;;;;;;;;;6141813;23;20230;-86
2022/04/15 14:54:24;;;;;;;;;;;;;;;;;;6135111;23;20043;-86
2022/04/15 14:56:51;;;;;;;;;;;;;;;;;;6116971;23;20341;-86
2022/04/15 14:59:19;;;;;;;;;;;;;;;;;;6119727;23;20398;-86
2022/04/15 15:01:45;;;;;;;;;;;;;;;;;;6146815;23;19923;-86
2022/04/15 15:04:15;;;;;;;;;;;;;;;;;;6179313;23;19916;-85
2022/04/15 15:06:43;;;;;;;;;;;;;;;;;;6153730;23;20348;-86
2022/04/15 15:09:11;;;;;;;;;;;;;;;;;;6176249;23;19924;-85
2022/04/15 15:11:38;;;;;;;;;;;;;;;;;;6205288;23;19951;-85
2022/04/15 15:14:06;;;;;;;;;;;;;;;;;;6202413;23;19928;-85
2022/04/15 15:16:37;;;;;;;;;;;;;;;;;;6178959;23;19927;-85
2022/04/15 15:19:13;;;;;;;;;;;;;;;;;;6205210;23;19992;-85
2022/04/15 15:21:42;;;;;;;;;;;;;;;;;;6152750;23;19920;-85
2022/04/15 15:29:58;;;;;;;;;;;;;;;;;;6109389;23;19988;-86
2022/04/15 15:32:28;;;;;;;;;;;;;;;;;;6085104;23;19921;-86
2022/04/15 15:34:55;;;;;;;;;;;;;;;;;;6083027;23;19995;-86
2022/04/15 15:37:23;;;;;;;;;;;;;;;;;;6083765;23;20455;-86
2022/04/15 15:39:50;;;;;;;;;;;;;;;;;;6106108;23;19924;-86
2022/04/15 15:42:31;;;;;;;;;;;;;;;;;;6111394;23;20008;-86
2022/04/15 15:44:58;;;;;;;;;;;;;;;;;;6108365;23;19916;-86
2022/04/15 15:47:24;;;;;;;;;;;;;;;;;;6108237;23;19925;-86
2022/04/15 15:49:50;;;;;;;;;;;;;;;;;;6080756;23;19932;-86
2022/04/15 15:52:18;;;;;;;;;;;;;;;;;;6110937;23;20273;-86
2022/04/15 15:54:48;;;;;;;;;;;;;;;;;;6106563;23;20074;-86
2022/04/15 15:57:15;;;;;;;;;;;;;;;;;;6108406;23;19944;-86
2022/04/15 15:59:42;;;;;;;;;;;;;;;;;;6085466;23;20268;-86
2022/04/15 16:02:09;;;;;;;;;;;;;;;;;;6199340;23;19920;-85
2022/04/15 16:04:35;;;;;;;;;;;;;;;;;;6200836;23;20014;-86
2022/04/15 16:07:01;;;;;;;;;;;;;;;;;;6200711;23;19963;-86
2022/04/15 16:09:30;;;;;;;;;;;;;;;;;;6203027;23;19924;-86
2022/04/15 16:11:57;;;;;;;;;;;;;;;;;;6197571;23;19999;-86
2022/04/15 16:14:24;;;;;;;;;;;;;;;;;;6173465;23;19930;-86
2022/04/15 16:16:52;;;;;;;;;;;;;;;;;;6170439;23;19991;-86
2022/04/15 16:19:20;;;;;;;;;;;;;;;;;;6173370;23;19927;-86
2022/04/15 16:21:49;;;;;;;;;;;;;;;;;;6171190;23;19920;-86
2022/04/15 16:24:19;;;;;;;;;;;;;;;;;;6174705;23;19991;-86
2022/04/15 16:26:45;;;;;;;;;;;;;;;;;;6146819;23;19920;-85
2022/04/15 16:29:13;;;;;;;;;;;;;;;;;;6172450;23;20352;-86
2022/04/15 16:31:39;;;;;;;;;;;;;;;;;;6172696;23;19916;-86
2022/04/15 16:34:25;;;;;;;;;;;;;;;;;;6177631;23;19923;-85
2022/04/15 16:36:52;;;;;;;;;;;;;;;;;;6170932;23;19963;-85
2022/04/15 16:39:19;;;;;;;;;;;;;;;;;;6175304;23;19920;-85
2022/04/15 16:42:00;;;;;;;;;;;;;;;;;;6116081;23;19933;-85
2022/04/15 16:44:29;;;;;;;;;;;;;;;;;;6140414;23;19976;-85
2022/04/15 16:46:58;;;;;;;;;;;;;;;;;;6111428;23;19924;-85
2022/04/15 16:49:24;;;;;;;;;;;;;;;;;;6139449;23;20773;-85
2022/04/15 16:51:57;;;;;;;;;;;;;;;;;;6135518;23;20446;-86
2022/04/15 17:00:00;;;;;;;;;;;;;;;;;;6110048;23;19920;-86
2022/04/15 17:02:27;;;;;;;;;;;;;;;;;;6089426;23;20408;-86
2022/04/15 17:04:57;;;;;;;;;;;;;;;;;;6131129;23;20475;-85
2022/04/15 17:07:24;;;;;;;;;;;;;;;;;;6109602;23;20028;-86
2022/04/15 17:09:51;;;;;;;;;;;;;;;;;;6081035;23;19960;-85
2022/04/15 17:12:35;;;;;;;;;;;;;;;;;;6098155;23;19955;-85
2022/04/15 17:15:03;;;;;;;;;;;;;;;;;;6136059;23;19924;-85